createdAt,value
2018-01-14T00:01:46.706Z,33.80
2018-01-14T00:04:14.182Z,30.55
2018-01-14T00:06:41.748Z,30.42
2018-01-14T00:09:09.217Z,29.20
2018-01-14T00:11:36.690Z,29.63
2018-01-14T00:14:04.163Z,31.00
2018-01-14T00:16:31.640Z,29.15
2018-01-14T00:18:59.113Z,28.67
2018-01-14T00:21:26.591Z,29.10
2018-01-14T00:23:54.060Z,27.55
2018-01-14T00:26:21.508Z,29.83
2018-01-14T00:28:48.978Z,26.77
2018-01-14T00:31:16.505Z,28.80
2018-01-14T00:33:43.988Z,26.73
2018-01-14T00:36:11.461Z,28.92
2018-01-14T00:38:38.959Z,25.80
2018-01-14T00:41:06.422Z,27.33
2018-01-14T00:43:34.215Z,26.73
2018-01-14T00:46:01.697Z,27.30
2018-01-14T00:48:29.165Z,25.85
2018-01-14T00:50:56.628Z,26.58
2018-01-14T00:53:24.091Z,25.37
2018-01-14T00:55:51.587Z,25.77
2018-01-14T00:58:19.057Z,25.77
2018-01-14T01:00:46.547Z,26.40
2018-01-14T01:03:14.091Z,27.33
2018-01-14T01:05:41.519Z,25.42
2018-01-14T01:08:09.010Z,26.75
2018-01-14T01:10:36.494Z,26.85
2018-01-14T01:13:03.955Z,26.80
2018-01-14T01:15:31.428Z,26.05
2018-01-14T01:17:58.895Z,27.17
2018-01-14T01:20:26.348Z,27.35
2018-01-14T01:22:53.892Z,25.50
2018-01-14T01:25:20.651Z,26.02
2018-01-14T01:27:48.108Z,25.27
2018-01-14T01:30:15.648Z,26.90
2018-01-14T01:32:43.076Z,28.25
2018-01-14T01:35:10.537Z,27.25
2018-01-14T01:37:38.012Z,27.67
2018-01-14T01:40:05.473Z,29.52
2018-01-14T01:42:32.943Z,26.62
2018-01-14T01:45:00.430Z,27.67
2018-01-14T01:47:27.880Z,27.75
2018-01-14T01:49:55.347Z,27.25
2018-01-14T01:52:22.845Z,28.48
2018-01-14T01:54:50.303Z,27.90
2018-01-14T01:57:17.774Z,28.40
2018-01-14T01:59:45.244Z,26.27
2018-01-14T02:02:12.723Z,26.10
2018-01-14T02:04:40.177Z,27.60
2018-01-14T02:07:07.656Z,24.83
2018-01-14T02:09:35.103Z,28.00
2018-01-14T02:12:02.563Z,28.45
2018-01-14T02:14:30.101Z,30.08
2018-01-14T02:16:57.547Z,29.80
2018-01-14T02:19:25.007Z,29.02
2018-01-14T02:21:52.485Z,31.65
2018-01-14T02:24:19.931Z,31.80
2018-01-14T02:26:47.402Z,31.85
2018-01-14T02:29:14.868Z,31.60
2018-01-14T02:31:42.319Z,31.83
2018-01-14T02:34:09.772Z,30.52
2018-01-14T02:36:37.251Z,31.27
2018-01-14T02:39:04.719Z,31.17
2018-01-14T02:41:32.162Z,32.00
2018-01-14T02:43:59.647Z,31.45
2018-01-14T02:46:27.114Z,30.85
2018-01-14T02:48:54.572Z,33.45
2018-01-14T02:51:22.036Z,34.33
2018-01-14T02:53:49.516Z,30.40
2018-01-14T02:56:16.982Z,32.63
2018-01-14T02:58:44.448Z,31.17
2018-01-14T03:01:11.896Z,33.90
2018-01-14T03:03:39.371Z,31.23
2018-01-14T03:06:06.851Z,35.80
2018-01-14T03:08:34.304Z,32.88
2018-01-14T03:11:01.795Z,31.33
2018-01-14T03:13:29.263Z,33.60
2018-01-14T03:15:56.719Z,33.65
2018-01-14T03:18:24.173Z,33.50
2018-01-14T03:20:51.620Z,34.25
2018-01-14T03:23:19.126Z,34.25
2018-01-14T03:25:46.595Z,34.63
2018-01-14T03:28:14.078Z,34.80
2018-01-14T03:30:41.542Z,32.60
2018-01-14T03:33:09.006Z,33.13
2018-01-14T03:35:36.481Z,34.70
2018-01-14T03:38:03.966Z,33.85
2018-01-14T03:40:31.445Z,32.33
2018-01-14T03:42:58.919Z,32.92
2018-01-14T03:45:26.400Z,32.85
2018-01-14T03:47:53.856Z,34.65
2018-01-14T03:50:21.339Z,32.95
2018-01-14T03:52:48.842Z,33.00
2018-01-14T03:55:16.311Z,33.70
2018-01-14T03:57:43.799Z,32.78
2018-01-14T04:00:11.266Z,32.17
2018-01-14T04:02:38.744Z,32.92
2018-01-14T04:05:06.216Z,36.45
2018-01-14T04:07:33.664Z,33.50
2018-01-14T04:10:01.138Z,35.30
2018-01-14T04:12:28.636Z,32.60
2018-01-14T04:14:56.110Z,33.35
2018-01-14T04:17:23.579Z,34.92
2018-01-14T04:19:51.048Z,38.17
2018-01-14T04:22:18.518Z,34.33
2018-01-14T04:24:45.983Z,32.85
2018-01-14T04:27:13.468Z,32.75
2018-01-14T04:29:40.938Z,32.45
2018-01-14T04:32:08.406Z,33.20
2018-01-14T04:34:35.885Z,33.42
2018-01-14T04:37:03.345Z,33.75
2018-01-14T04:39:30.795Z,35.40
2018-01-14T04:41:58.255Z,31.48
2018-01-14T04:44:25.726Z,33.22
2018-01-14T04:46:53.173Z,31.98
2018-01-14T04:49:20.649Z,32.38
2018-01-14T04:51:48.100Z,30.95
2018-01-14T04:54:15.567Z,33.92
2018-01-14T04:56:43.035Z,33.95
2018-01-14T04:59:10.487Z,31.92
2018-01-14T05:01:37.962Z,32.13
2018-01-14T05:04:05.474Z,32.78
2018-01-14T05:06:32.969Z,33.65
2018-01-14T05:09:00.420Z,36.08
2018-01-14T05:11:27.906Z,36.63
2018-01-14T05:13:55.382Z,35.78
2018-01-14T05:16:22.830Z,34.38
2018-01-14T05:18:50.287Z,32.08
2018-01-14T05:21:17.748Z,35.10
2018-01-14T05:23:45.223Z,33.58
2018-01-14T05:26:12.721Z,33.50
2018-01-14T05:28:40.180Z,34.50
2018-01-14T05:31:07.651Z,32.78
2018-01-14T05:33:35.155Z,33.97
2018-01-14T05:36:02.646Z,33.90
2018-01-14T05:38:30.114Z,35.20
2018-01-14T05:40:57.590Z,35.47
2018-01-14T05:43:25.059Z,34.33
2018-01-14T05:45:52.539Z,34.75
2018-01-14T05:48:20.031Z,32.97
2018-01-14T05:50:47.507Z,33.95
2018-01-14T05:53:14.977Z,31.35
2018-01-14T05:55:42.466Z,31.42
2018-01-14T05:58:09.950Z,31.85
2018-01-14T06:00:37.420Z,33.63
2018-01-14T06:03:04.893Z,32.05
2018-01-14T06:05:32.367Z,31.37
2018-01-14T06:07:59.824Z,30.30
2018-01-14T06:10:27.311Z,32.70
2018-01-14T06:12:54.765Z,31.50
2018-01-14T06:15:22.216Z,32.90
2018-01-14T06:17:49.699Z,32.60
2018-01-14T06:20:17.163Z,31.02
2018-01-14T06:22:44.612Z,33.35
2018-01-14T06:25:12.077Z,31.45
2018-01-14T06:27:39.540Z,33.08
2018-01-14T06:30:07.001Z,33.97
2018-01-14T06:32:34.463Z,34.00
2018-01-14T06:35:01.934Z,33.45
2018-01-14T06:37:29.406Z,34.47
2018-01-14T06:39:56.897Z,31.70
2018-01-14T06:42:24.367Z,33.35
2018-01-14T06:44:51.826Z,32.25
2018-01-14T06:47:19.296Z,31.48
2018-01-14T06:49:46.745Z,30.95
2018-01-14T06:52:14.192Z,29.90
2018-01-14T06:54:41.679Z,32.38
2018-01-14T06:57:09.152Z,32.65
2018-01-14T06:59:36.600Z,32.30
2018-01-14T07:02:04.074Z,29.87
2018-01-14T07:04:31.539Z,30.27
2018-01-14T07:06:59.008Z,29.48
2018-01-14T07:09:26.491Z,27.90
2018-01-14T07:11:53.966Z,28.73
2018-01-14T07:14:21.439Z,30.17
2018-01-14T07:16:48.912Z,28.00
2018-01-14T07:19:16.382Z,30.80
2018-01-14T07:21:43.832Z,30.12
2018-01-14T07:24:11.316Z,28.83
2018-01-14T07:26:38.786Z,28.12
2018-01-14T07:29:06.236Z,28.05
2018-01-14T07:31:33.695Z,31.00
2018-01-14T07:34:01.142Z,29.23
2018-01-14T07:36:28.614Z,27.87
2018-01-14T07:38:56.100Z,28.65
2018-01-14T07:41:23.561Z,27.98
2018-01-14T07:43:51.036Z,27.62
2018-01-14T07:46:18.522Z,27.52
2018-01-14T07:48:45.995Z,26.75
2018-01-14T07:51:13.462Z,26.70
2018-01-14T07:53:40.942Z,27.15
2018-01-14T07:56:08.406Z,30.02
2018-01-14T07:58:35.871Z,27.90
2018-01-14T08:01:03.344Z,28.75
2018-01-14T08:03:30.824Z,28.30
2018-01-14T08:05:58.368Z,28.20
2018-01-14T08:08:25.848Z,29.50
2018-01-14T08:10:53.296Z,27.35
2018-01-14T08:13:20.752Z,26.73
2018-01-14T08:15:48.211Z,29.08
2018-01-14T08:18:15.679Z,27.23
2018-01-14T08:20:43.149Z,25.00
2018-01-14T08:23:10.618Z,28.55
2018-01-14T08:25:38.078Z,26.55
2018-01-14T08:28:05.561Z,24.80
2018-01-14T08:30:33.036Z,28.55
2018-01-14T08:33:00.513Z,27.70
2018-01-14T08:35:27.996Z,26.67
2018-01-14T08:37:55.452Z,26.12
2018-01-14T08:40:22.926Z,26.20
2018-01-14T08:42:50.862Z,27.90
2018-01-14T08:45:18.311Z,26.40
2018-01-14T08:47:45.754Z,27.65
2018-01-14T08:50:13.254Z,23.45
2018-01-14T08:52:40.722Z,25.27
2018-01-14T08:55:08.179Z,26.10
2018-01-14T08:57:35.627Z,24.33
2018-01-14T09:00:03.107Z,25.75
2018-01-14T09:02:30.591Z,25.77
2018-01-14T09:04:58.040Z,25.10
2018-01-14T09:07:25.510Z,25.73
2018-01-14T09:09:52.982Z,25.70
2018-01-14T09:12:20.451Z,26.20
2018-01-14T09:14:47.899Z,25.60
2018-01-14T09:17:15.382Z,25.35
2018-01-14T09:19:42.855Z,23.27
2018-01-14T09:22:10.327Z,23.42
2018-01-14T09:24:37.823Z,23.80
2018-01-14T09:27:05.306Z,22.58
2018-01-14T09:29:32.764Z,23.60
2018-01-14T09:32:00.250Z,23.20
2018-01-14T09:34:27.700Z,21.95
2018-01-14T09:36:55.151Z,23.75
2018-01-14T09:39:22.636Z,24.30
2018-01-14T09:41:50.102Z,23.42
2018-01-14T09:44:17.571Z,22.77
2018-01-14T09:46:45.036Z,21.90
2018-01-14T09:49:12.502Z,22.98
2018-01-14T09:51:39.978Z,22.50
2018-01-14T09:54:07.440Z,22.80
2018-01-14T09:56:34.917Z,22.75
2018-01-14T09:59:02.371Z,22.15
2018-01-14T10:01:29.840Z,21.70
2018-01-14T10:03:58.132Z,21.80
2018-01-14T10:06:25.603Z,21.92
2018-01-14T10:08:53.078Z,23.85
2018-01-14T10:11:20.543Z,25.00
2018-01-14T10:13:47.997Z,22.13
2018-01-14T10:16:15.469Z,23.20
2018-01-14T10:18:42.934Z,24.00
2018-01-14T10:21:10.389Z,24.35
2018-01-14T10:23:37.847Z,25.23
2018-01-14T10:26:05.314Z,24.58
2018-01-14T10:28:32.768Z,24.25
2018-01-14T10:31:00.256Z,24.40
2018-01-14T10:33:27.717Z,24.45
2018-01-14T10:35:55.177Z,22.65
2018-01-14T10:38:22.654Z,23.08
2018-01-14T10:40:50.122Z,24.17
2018-01-14T10:43:17.573Z,22.45
2018-01-14T10:45:45.059Z,23.35
2018-01-14T10:48:12.527Z,22.77
2018-01-14T10:50:40.070Z,24.95
2018-01-14T10:53:07.562Z,25.42
2018-01-14T10:55:35.028Z,23.77
2018-01-14T10:58:02.489Z,25.77
2018-01-14T11:00:35.507Z,25.25
2018-01-14T11:03:02.982Z,25.88
2018-01-14T11:05:30.441Z,25.48
2018-01-14T11:07:57.927Z,22.70
2018-01-14T11:10:25.399Z,22.37
2018-01-14T11:12:52.852Z,22.85
2018-01-14T11:15:20.320Z,21.33
2018-01-14T11:17:47.785Z,20.95
2018-01-14T11:20:15.254Z,21.75
2018-01-14T11:22:42.719Z,24.85
2018-01-14T11:25:10.187Z,23.05
2018-01-14T11:27:37.663Z,23.65
2018-01-14T11:30:06.763Z,21.95
2018-01-14T11:32:34.213Z,24.52
2018-01-14T11:35:01.669Z,21.60
2018-01-14T11:37:29.150Z,20.77
2018-01-14T11:39:56.595Z,22.33
2018-01-14T11:42:24.067Z,22.52
2018-01-14T11:44:51.556Z,22.87
2018-01-14T11:47:19.004Z,23.15
2018-01-14T11:49:46.478Z,22.15
2018-01-14T11:52:13.955Z,22.52
2018-01-14T11:54:41.454Z,21.92
2018-01-14T11:57:08.934Z,22.75
2018-01-14T11:59:36.411Z,22.83
2018-01-14T12:02:03.879Z,24.17
2018-01-14T12:04:31.419Z,24.33
2018-01-14T12:06:58.895Z,20.37
2018-01-14T12:09:26.377Z,22.83
2018-01-14T12:11:53.877Z,24.05
2018-01-14T12:14:21.363Z,21.25
2018-01-14T12:16:48.867Z,22.23
2018-01-14T12:19:16.371Z,21.60
2018-01-14T12:21:43.854Z,21.37
2018-01-14T12:24:11.326Z,21.25
2018-01-14T12:26:38.816Z,20.27
2018-01-14T12:29:06.299Z,20.00
2018-01-14T12:31:33.797Z,20.40
2018-01-14T12:47:40.869Z,20.35
2018-01-14T12:50:08.357Z,19.62
2018-01-14T12:52:35.843Z,18.75
2018-01-14T12:55:03.312Z,20.33
2018-01-14T12:57:30.785Z,19.60
2018-01-14T12:59:58.270Z,20.65
2018-01-14T13:02:25.732Z,20.25
2018-01-14T13:04:53.926Z,21.20
2018-01-14T13:07:21.447Z,19.85
2018-01-14T13:09:48.922Z,22.02
2018-01-14T13:12:16.401Z,23.12
2018-01-14T13:14:43.910Z,20.12
2018-01-14T13:17:11.449Z,19.80
2018-01-14T13:19:38.951Z,22.27
2018-01-14T13:22:06.448Z,19.90
2018-01-14T13:24:33.922Z,19.62
2018-01-14T13:27:01.379Z,19.08
2018-01-14T13:29:28.846Z,20.58
2018-01-14T13:31:56.335Z,18.85
2018-01-14T13:34:23.796Z,20.98
2018-01-14T13:36:51.264Z,17.80
2018-01-14T13:39:18.752Z,19.85
2018-01-14T13:41:46.239Z,19.00
2018-01-14T13:44:13.804Z,20.48
2018-01-14T13:46:41.275Z,19.15
2018-01-14T13:49:08.747Z,18.50
2018-01-14T13:51:36.239Z,19.50
2018-01-14T13:54:03.700Z,21.35
2018-01-14T13:56:31.167Z,19.02
2018-01-14T13:58:58.641Z,17.75
2018-01-14T14:01:26.119Z,17.92
2018-01-14T14:03:53.572Z,18.98
2018-01-14T14:06:21.054Z,17.10
2018-01-14T14:08:48.504Z,18.20
2018-01-14T14:11:15.979Z,18.58
2018-01-14T14:13:43.472Z,19.52
2018-01-14T14:16:10.933Z,18.33
2018-01-14T14:18:38.402Z,17.08
2018-01-14T14:21:05.872Z,16.98
2018-01-14T14:23:33.346Z,17.20
2018-01-14T14:26:00.827Z,15.85
2018-01-14T14:28:28.323Z,18.62
2018-01-14T14:30:55.813Z,16.42
2018-01-14T14:33:23.293Z,16.42
2018-01-14T14:35:50.762Z,15.38
2018-01-14T14:38:18.239Z,15.95
2018-01-14T14:40:45.722Z,16.42
2018-01-14T14:43:13.196Z,16.00
2018-01-14T14:45:40.668Z,18.08
2018-01-14T14:48:08.140Z,16.90
2018-01-14T14:50:35.608Z,17.25
2018-01-14T14:53:03.090Z,18.67
2018-01-14T14:55:30.578Z,17.02
2018-01-14T14:57:58.037Z,19.35
2018-01-14T15:00:25.510Z,18.62
2018-01-14T15:02:52.982Z,16.98
2018-01-14T15:05:20.440Z,19.23
2018-01-14T15:07:47.908Z,16.73
2018-01-14T15:10:15.356Z,17.58
2018-01-14T15:12:42.808Z,18.10
2018-01-14T15:15:10.292Z,18.00
2018-01-14T15:17:37.762Z,15.77
2018-01-14T15:20:05.213Z,17.80
2018-01-14T15:22:32.683Z,16.35
2018-01-14T15:25:00.163Z,15.52
2018-01-14T15:27:27.631Z,16.35
2018-01-14T15:29:55.096Z,17.00
2018-01-14T15:32:22.590Z,18.15
2018-01-14T15:34:50.052Z,31.10
2018-01-14T15:37:17.547Z,19.50
2018-01-14T15:39:45.029Z,17.83
2018-01-14T15:42:12.532Z,17.95
2018-01-14T15:44:40.003Z,16.87
2018-01-14T15:47:07.474Z,17.80
2018-01-14T15:49:34.956Z,16.67
2018-01-14T15:52:02.422Z,17.15
2018-01-14T15:54:29.894Z,16.77
2018-01-14T15:56:57.380Z,16.12
2018-01-14T15:59:24.855Z,16.00
2018-01-14T16:01:52.326Z,16.45
2018-01-14T16:04:19.810Z,17.23
2018-01-14T16:06:47.265Z,15.80
2018-01-14T16:09:14.735Z,13.70
2018-01-14T16:11:42.195Z,16.75
2018-01-14T16:14:09.667Z,16.48
2018-01-14T16:16:37.118Z,17.67
2018-01-14T16:19:04.580Z,17.12
2018-01-14T16:21:32.036Z,17.58
2018-01-14T16:23:59.510Z,16.90
2018-01-14T16:26:27.044Z,17.98
2018-01-14T16:28:54.468Z,19.00
2018-01-14T16:31:21.938Z,18.00
2018-01-14T16:33:49.400Z,19.62
2018-01-14T16:36:16.884Z,20.10
2018-01-14T16:38:44.335Z,20.23
2018-01-14T16:41:11.801Z,21.75
2018-01-14T16:43:39.252Z,21.40
2018-01-14T16:46:06.704Z,19.95
2018-01-14T16:48:34.185Z,18.27
2018-01-14T16:51:01.636Z,17.33
2018-01-14T16:53:29.107Z,18.23
2018-01-14T16:55:56.599Z,18.45
2018-01-14T16:58:24.052Z,18.30
2018-01-14T17:00:51.500Z,18.73
2018-01-14T17:03:18.982Z,18.50
2018-01-14T17:05:46.427Z,18.62
2018-01-14T17:08:13.886Z,18.05
2018-01-14T17:10:41.354Z,19.05
2018-01-14T17:13:08.822Z,20.88
2018-01-14T17:15:36.271Z,18.52
2018-01-14T17:18:03.759Z,21.17
2018-01-14T17:20:31.227Z,19.95
2018-01-14T17:22:58.699Z,21.48
2018-01-14T17:25:26.177Z,22.20
2018-01-14T17:27:53.624Z,22.90
2018-01-14T17:30:21.068Z,18.67
2018-01-14T17:32:48.531Z,24.12
2018-01-14T17:35:15.980Z,21.73
2018-01-14T17:37:43.455Z,22.73
2018-01-14T17:40:10.943Z,23.08
2018-01-14T17:42:38.412Z,21.98
2018-01-14T17:45:05.876Z,21.27
2018-01-14T17:47:33.372Z,21.87
2018-01-14T17:50:00.820Z,22.13
2018-01-14T17:52:28.271Z,21.90
2018-01-14T17:54:55.740Z,22.20
2018-01-14T17:57:23.202Z,21.80
2018-01-14T17:59:50.670Z,22.55
2018-01-14T18:02:18.150Z,21.52
2018-01-14T18:04:45.592Z,22.30
2018-01-14T18:07:13.048Z,21.80
2018-01-14T18:09:40.527Z,21.70
2018-01-14T18:12:07.995Z,20.77
2018-01-14T18:14:35.440Z,19.95
2018-01-14T18:17:02.909Z,21.48
2018-01-14T18:19:30.355Z,20.52
2018-01-14T18:21:57.807Z,19.52
2018-01-14T18:24:25.276Z,20.88
2018-01-14T18:26:52.729Z,18.52
2018-01-14T18:29:20.176Z,20.02
2018-01-14T18:31:47.666Z,22.25
2018-01-14T18:34:15.135Z,20.12
2018-01-14T18:36:42.599Z,20.80
2018-01-14T18:39:10.080Z,21.33
2018-01-14T18:41:37.542Z,19.98
2018-01-14T18:44:05.004Z,21.23
2018-01-14T18:46:32.468Z,19.83
2018-01-14T18:48:59.941Z,21.02
2018-01-14T18:51:27.431Z,20.25
2018-01-14T18:53:54.918Z,21.80
2018-01-14T18:56:22.383Z,21.48
2018-01-14T18:58:49.850Z,20.75
2018-01-14T19:01:17.325Z,22.85
2018-01-14T19:03:44.790Z,21.98
2018-01-14T19:06:12.256Z,21.87
2018-01-14T19:08:39.707Z,22.77
2018-01-14T19:11:07.147Z,21.10
2018-01-14T19:13:34.614Z,20.23
2018-01-14T19:16:02.065Z,20.77
2018-01-14T19:18:29.531Z,22.75
2018-01-14T19:20:56.993Z,22.55
2018-01-14T19:23:24.457Z,20.58
2018-01-14T19:25:51.908Z,20.60
2018-01-14T19:28:19.390Z,20.88
2018-01-14T19:30:46.879Z,22.13
2018-01-14T19:33:14.338Z,21.58
2018-01-14T19:35:41.809Z,21.45
2018-01-14T19:38:09.275Z,24.17
2018-01-14T19:40:36.738Z,21.30
2018-01-14T19:43:04.218Z,23.38
2018-01-14T19:45:31.672Z,21.58
2018-01-14T19:47:59.135Z,22.30
2018-01-14T19:50:26.610Z,20.77
2018-01-14T19:52:54.060Z,22.13
2018-01-14T19:55:21.522Z,22.80
2018-01-14T19:57:48.998Z,23.10
2018-01-14T20:00:16.465Z,23.25
2018-01-14T20:02:43.940Z,22.65
2018-01-14T20:05:11.426Z,23.15
2018-01-14T20:07:38.907Z,23.42
2018-01-14T20:10:06.377Z,22.92
2018-01-14T20:12:33.873Z,25.12
2018-01-14T20:15:01.347Z,24.42
2018-01-14T20:17:28.804Z,23.35
2018-01-14T20:19:56.323Z,22.58
2018-01-14T20:22:23.800Z,24.87
2018-01-14T20:24:51.259Z,24.05
2018-01-14T20:27:18.720Z,25.67
2018-01-14T20:29:46.163Z,23.38
2018-01-14T20:32:13.632Z,26.37
2018-01-14T20:34:41.096Z,25.90
2018-01-14T20:37:08.541Z,24.52
2018-01-14T20:39:35.991Z,24.35
2018-01-14T20:42:03.456Z,26.62
2018-01-14T20:44:30.926Z,26.20
2018-01-14T20:46:58.368Z,26.65
2018-01-14T20:49:25.882Z,26.02
2018-01-14T20:51:53.346Z,28.20
2018-01-14T20:54:20.818Z,27.00
2018-01-14T20:56:48.292Z,29.27
2018-01-14T20:59:15.764Z,29.87
2018-01-14T21:01:43.216Z,26.60
2018-01-14T21:04:10.672Z,27.05
2018-01-14T21:06:38.139Z,29.40
2018-01-14T21:09:05.618Z,29.02
2018-01-14T21:11:33.090Z,29.75
2018-01-14T21:14:00.548Z,29.45
2018-01-14T21:16:28.004Z,27.83
2018-01-14T21:18:55.482Z,28.90
2018-01-14T21:21:22.957Z,28.05
2018-01-14T21:23:50.422Z,28.23
2018-01-14T21:26:17.897Z,28.62
2018-01-14T21:28:45.450Z,29.95
2018-01-14T21:31:12.842Z,29.33
2018-01-14T21:33:40.325Z,28.38
2018-01-14T21:36:07.799Z,29.02
2018-01-14T21:38:35.246Z,29.00
2018-01-14T21:41:02.723Z,30.92
2018-01-14T21:43:30.171Z,30.65
2018-01-14T21:45:57.635Z,30.77
2018-01-14T21:48:25.101Z,28.30
2018-01-14T21:50:52.563Z,30.17
2018-01-14T21:53:20.010Z,30.95
2018-01-14T21:55:47.488Z,30.75
2018-01-14T21:58:14.940Z,30.10
2018-01-14T22:00:42.380Z,29.48
2018-01-14T22:03:09.844Z,31.00
2018-01-14T22:05:37.314Z,31.10
2018-01-14T22:08:04.762Z,31.42
2018-01-14T22:10:32.224Z,30.85
2018-01-14T22:12:59.683Z,30.50
2018-01-14T22:15:27.140Z,32.10
2018-01-14T22:17:54.654Z,29.87
2018-01-14T22:20:22.115Z,29.67
2018-01-14T22:22:49.609Z,28.10
2018-01-14T22:25:17.062Z,29.30
2018-01-14T22:27:44.512Z,30.25
2018-01-14T22:30:11.980Z,29.48
2018-01-14T22:32:39.428Z,28.55
2018-01-14T22:35:06.903Z,30.02
2018-01-14T22:37:34.369Z,29.50
2018-01-14T22:40:01.839Z,29.45
2018-01-14T22:42:29.283Z,30.00
2018-01-14T22:44:56.743Z,30.00
2018-01-14T22:47:24.271Z,29.02
2018-01-14T22:49:51.684Z,28.83
2018-01-14T22:52:19.183Z,30.67
2018-01-14T22:54:46.653Z,30.02
2018-01-14T22:57:14.119Z,29.52
2018-01-14T22:59:41.587Z,31.10
2018-01-14T23:02:09.054Z,28.80
2018-01-14T23:04:36.519Z,29.37
2018-01-14T23:07:03.983Z,31.60
2018-01-14T23:09:31.451Z,31.27
2018-01-14T23:11:58.907Z,31.37
2018-01-14T23:14:26.381Z,31.60
2018-01-14T23:16:53.848Z,30.73
2018-01-14T23:19:21.296Z,30.85
2018-01-14T23:21:48.774Z,32.42
2018-01-14T23:24:16.244Z,32.30
2018-01-14T23:26:43.691Z,31.95
2018-01-14T23:29:11.194Z,32.53
2018-01-14T23:31:38.639Z,32.35
2018-01-14T23:34:06.118Z,34.00
2018-01-14T23:36:33.588Z,32.40
2018-01-14T23:39:01.051Z,31.70
2018-01-14T23:41:28.559Z,36.47
2018-01-14T23:43:56.004Z,35.83
2018-01-14T23:46:23.432Z,34.50
2018-01-14T23:48:50.964Z,36.17
2018-01-14T23:51:18.443Z,36.38
2018-01-14T23:53:45.903Z,38.22
2018-01-14T23:56:13.344Z,34.92
2018-01-14T23:58:40.804Z,36.00
